Portada
METAR-TAF:

METAR-TAF

Aeroports :

Dar es Salaam, Tanzània

latitud: 06-52S, longitud: 039-12E, altitud: 55 m

Observació

L'informe es va fer fa 1 hora i 9 minuts, a les 10:00 UTC
Vent 15 kt del Est/Sud-Est
Temperatura 27°C
Humitat 70%
Pressió 1019 hPa
Visibilitat 10 km o més
Núvols disperses a una alçada de 1100 ft
Cel ennuvolat a una alçada de 2100 ft

METAR: HTDA 161000Z 12015KT 9999 SCT011 BKN021 27/21 Q1019 NOSIG

Hora: 14:09 (11:09 UTC)

Pronòstic

L'informe es va fer fa 6 hores i 9 minuts, a les 05:00 UTC
Pronòstic vàlid del 16 a les 06 UTC al 17 a les 12 UTC
Vent 15 kt del Sud
Visibilitat 10 km o més
Cel ennuvolat a una alçada de 2000 ft
Evolucionant progressivament
l' 16 a les 14 UTC al 16 a les 17 UTC
Escasses núvols a una alçada de 1600 ft

TAF: HTDA 160500Z 1606/1712 19015KT 9999 BKN020 BECMG 1614/1617 FEW016

Observacions i pronòstics meteorològics de més de 4000 aeroports (METAR i TAF).

Les estacions disponibles són els punts grocs i vermells al mapa.

Posi el ratolí al punt desitjat per veure el nom de l'estació.

Feu clic per veure les observacions i els pronòstics meteorològics.

Per canviar el mapa: feu clic els botons verds amb una creu de color negre per apropar; al botó verd amb un guió per allunyar la imatge; o en les fletxes verdes per a mapes adjacents.


METAR-TAF: